Time;durP1;ratioP1;P1;durP2;ratioP2;P2;SDS_P1;SDS_P2;PMS_P1;PMS_P2;Temp;Humidity;BMP_temperature;BMP_pressure;BME280_temperature;BME280_humidity;BME280_pressure;Samples;Min_cycle;Max_cycle;Signal;HPM_P1;HPM_P2
2023/02/06 00:01:58;;;;;;;;;2.00;1.00;;;;;5.74;100.00;103919.78;5077144;27;69216;-79
2023/02/06 00:04:23;;;;;;;;;4.75;1.75;;;;;5.74;100.00;103912.03;5078162;28;45299;-79
2023/02/06 00:06:49;;;;;;;;;4.00;1.00;;;;;5.74;100.00;103917.19;5077405;27;63048;-79
2023/02/06 00:09:14;;;;;;;;;8.50;2.75;;;;;5.72;100.00;103917.16;5077719;27;45426;-79
2023/02/06 00:11:39;;;;;;;;;3.25;1.25;;;;;5.73;100.00;103921.50;5077978;28;45371;-79
2023/02/06 00:14:05;;;;;;;;;9.00;4.00;;;;;5.74;100.00;103932.72;5077789;27;45344;-79
2023/02/06 00:16:32;;;;;;;;;1.00;1.00;;;;;5.74;100.00;103935.28;5078022;27;45402;-79
2023/02/06 00:18:58;;;;;;;;;1.00;1.00;;;;;5.73;100.00;103925.78;5077864;28;45416;-80
2023/02/06 00:21:26;;;;;;;;;4.75;1.00;;;;;5.74;100.00;103933.63;5077792;27;45419;-79
2023/02/06 00:23:53;;;;;;;;;7.00;3.50;;;;;5.74;100.00;103922.38;5077443;28;45459;-80
2023/02/06 00:26:18;;;;;;;;;8.00;2.00;;;;;5.76;100.00;103931.09;5059528;28;45364;-79
2023/02/06 00:28:44;;;;;;;;;11.75;2.00;;;;;5.75;100.00;103924.16;5077815;28;45356;-79
2023/02/06 00:31:10;;;;;;;;;8.00;2.00;;;;;5.77;100.00;103925.97;5059501;28;46576;-79
2023/02/06 00:33:37;;;;;;;;;1.25;1.00;;;;;5.77;100.00;103917.34;5076537;27;65833;-79
2023/02/06 00:36:02;;;;;;;;;5.00;1.00;;;;;5.78;100.00;103924.28;5077815;27;45435;-79
2023/02/06 00:38:28;;;;;;;;;3.75;2.00;;;;;5.78;100.00;103935.50;5077565;28;45316;-79
2023/02/06 00:40:54;;;;;;;;;4.75;1.00;;;;;5.78;100.00;103934.63;5077374;27;46046;-79
2023/02/06 00:43:19;;;;;;;;;7.25;1.25;;;;;5.76;100.00;103937.16;5059265;28;45306;-79
2023/02/06 00:45:45;;;;;;;;;4.25;0.25;;;;;5.75;100.00;103939.66;5075966;28;49160;-79
2023/02/06 00:48:15;;;;;;;;;4.00;2.00;;;;;5.73;100.00;103942.16;5059297;28;45634;-79
2023/02/06 00:50:41;;;;;;;;;8.50;2.50;;;;;5.71;100.00;103936.06;5077326;28;46334;-79
2023/02/06 00:53:06;;;;;;;;;3.25;2.00;;;;;5.70;100.00;103939.47;5076462;27;45365;-79
2023/02/06 00:55:31;;;;;;;;;10.50;3.00;;;;;5.70;100.00;103936.91;5077505;28;45328;-79
2023/02/06 00:57:57;;;;;;;;;2.50;1.25;;;;;5.68;100.00;103930.75;5077275;28;45570;-80
2023/02/06 01:00:22;;;;;;;;;7.00;1.00;;;;;5.66;100.00;103924.63;5077312;27;46629;-79
2023/02/06 01:02:47;;;;;;;;;1.75;1.50;;;;;5.66;100.00;103929.81;5058900;28;45403;-79
2023/02/06 01:05:13;;;;;;;;;2.50;2.00;;;;;5.64;100.00;103923.69;5076410;28;63408;-79
2023/02/06 01:07:39;;;;;;;;;4.00;1.50;;;;;5.60;100.00;103925.25;5076119;27;60810;-79
2023/02/06 01:10:06;;;;;;;;;7.75;3.50;;;;;5.58;100.00;103924.31;5058958;27;45663;-78
2023/02/06 01:12:33;;;;;;;;;2.00;2.00;;;;;5.54;100.00;103922.41;5076967;27;45702;-79
2023/02/06 01:15:00;;;;;;;;;1.00;1.00;;;;;5.55;100.00;103923.28;5076920;28;45446;-79
2023/02/06 01:17:25;;;;;;;;;8.25;2.00;;;;;5.55;100.00;103912.97;5076775;27;45577;-79
2023/02/06 01:19:50;;;;;;;;;7.00;2.00;;;;;5.53;100.00;103910.31;5075830;28;71494;-79
2023/02/06 01:22:16;;;;;;;;;6.50;2.50;;;;;5.52;100.00;103911.13;5076396;27;45486;-80
2023/02/06 01:24:41;;;;;;;;;5.50;1.00;;;;;5.51;100.00;103917.09;5076151;27;61437;-79
2023/02/06 01:27:06;;;;;;;;;5.00;1.75;;;;;5.50;100.00;103911.88;5076538;27;48001;-79
2023/02/06 01:29:32;;;;;;;;;4.00;2.00;;;;;5.50;100.00;103914.44;5076440;28;49974;-79
2023/02/06 01:31:57;;;;;;;;;2.75;0.50;;;;;5.47;100.00;103909.19;5076729;27;45391;-79
2023/02/06 01:34:22;;;;;;;;;2.00;1.25;;;;;5.46;100.00;103909.97;5075820;27;65146;-79
2023/02/06 01:36:48;;;;;;;;;4.50;1.00;;;;;5.47;100.00;103909.19;5076384;28;45341;-78
2023/02/06 01:39:13;;;;;;;;;8.25;4.25;;;;;5.42;100.00;103907.28;5057985;28;53702;-79
2023/02/06 01:41:38;;;;;;;;;1.00;1.00;;;;;5.40;100.00;103908.00;5076399;27;45405;-79
2023/02/06 01:44:09;;;;;;;;;8.25;2.00;;;;;5.40;100.00;103901.16;5075736;27;65290;-80
2023/02/06 01:46:34;;;;;;;;;5.25;2.00;;;;;5.38;100.00;103896.72;5076717;27;45570;-79
2023/02/06 01:49:00;;;;;;;;;10.50;3.50;;;;;5.37;100.00;103892.41;5076237;28;46472;-79
2023/02/06 01:51:26;;;;;;;;;7.75;1.75;;;;;5.35;100.00;103887.16;5056932;28;63587;-79
2023/02/06 01:53:56;;;;;;;;;4.00;1.25;;;;;5.33;100.00;103893.97;5057757;28;61769;-80
2023/02/06 01:56:23;;;;;;;;;9.50;1.75;;;;;5.32;100.00;103888.72;5076281;28;45289;-80
2023/02/06 01:58:54;;;;;;;;;2.00;1.00;;;;;5.30;100.00;103886.06;5058015;28;46575;-79
2023/02/06 02:01:20;;;;;;;;;4.75;0.75;;;;;5.31;100.00;103886.94;5076305;27;45857;-79
2023/02/06 02:03:49;;;;;;;;;4.00;2.00;;;;;5.29;100.00;103888.59;5076303;28;55381;-79
2023/02/06 02:06:17;;;;;;;;;3.25;1.00;;;;;5.28;100.00;103885.13;5058016;28;45438;-80
2023/02/06 02:08:45;;;;;;;;;3.25;1.25;;;;;5.28;100.00;103897.16;5076265;28;45526;-79
2023/02/06 02:11:15;;;;;;;;;4.75;1.00;;;;;5.26;100.00;103889.34;5076537;27;45432;-79
2023/02/06 02:13:42;;;;;;;;;3.25;1.75;;;;;5.22;100.00;103883.16;5058117;28;45390;-79
2023/02/06 02:16:31;;;;;;;;;7.25;2.00;;;;;5.22;100.00;103883.16;5076512;27;45416;-79
2023/02/06 02:19:30;;;;;;;;;7.00;3.00;;;;;5.21;100.00;103891.72;4976391;28;46463;-79
2023/02/06 02:22:23;;;;;;;;;5.50;4.00;;;;;5.17;100.00;103887.22;4973544;28;45320;-79
2023/02/06 02:25:37;;;;;;;;;4.50;1.75;;;;;5.15;100.00;103883.72;4973806;28;45391;-79
2023/02/06 02:28:24;;;;;;;;;4.25;2.00;;;;;5.14;100.00;103875.88;4973517;28;45244;-78
2023/02/06 02:31:01;;;;;;;;;9.25;3.00;;;;;5.12;100.00;103873.22;4973548;28;46403;-79
2023/02/06 02:33:54;;;;;;;;;7.50;4.25;;;;;5.10;100.00;103866.25;4973365;28;45901;-79
2023/02/06 02:36:31;;;;;;;;;10.25;4.00;;;;;5.03;100.00;103875.41;4954068;28;45383;-79
2023/02/06 02:39:15;;;;;;;;;8.25;4.00;;;;;5.00;100.00;103876.16;4954219;28;45313;-78
2023/02/06 02:41:49;;;;;;;;;10.00;2.00;;;;;5.00;100.00;103871.00;4953946;28;45348;-79
2023/02/06 02:44:39;;;;;;;;;10.00;4.00;;;;;4.97;100.00;103863.09;4968923;28;45480;-79
2023/02/06 02:47:07;;;;;;;;;2.00;1.00;;;;;5.00;100.00;103864.97;4952927;28;45378;-79
2023/02/06 02:49:35;;;;;;;;;1.75;1.75;;;;;5.00;100.00;103863.25;4952396;28;45453;-79
2023/02/06 02:52:01;;;;;;;;;12.25;1.75;;;;;4.99;100.00;103856.31;4960305;28;45420;-79
2023/02/06 02:54:27;;;;;;;;;7.25;1.00;;;;;4.99;100.00;103855.44;4973173;28;45344;-79
2023/02/06 02:56:56;;;;;;;;;8.50;1.75;;;;;4.96;100.00;103850.13;4973279;28;45364;-79
2023/02/06 02:59:30;;;;;;;;;3.50;1.50;;;;;4.97;100.00;103859.66;4973346;28;45315;-78
2023/02/06 03:01:58;;;;;;;;;2.00;1.00;;;;;4.95;100.00;103845.78;4971725;28;45414;-79
2023/02/06 03:04:29;;;;;;;;;8.75;3.25;;;;;4.93;100.00;103842.28;4972757;28;45687;-79
2023/02/06 03:07:10;;;;;;;;;1.75;1.00;;;;;4.90;100.00;103842.13;4971970;28;45395;-79
2023/02/06 03:09:42;;;;;;;;;5.75;4.25;;;;;4.89;100.00;103846.41;4975134;27;45344;-79
2023/02/06 03:12:16;;;;;;;;;3.75;2.75;;;;;4.89;100.00;103849.00;4976043;28;47166;-79
2023/02/06 03:14:50;;;;;;;;;1.50;1.00;;;;;4.87;100.00;103841.97;4974579;28;45434;-79
2023/02/06 03:17:20;;;;;;;;;10.50;2.00;;;;;4.82;100.00;103842.66;4974140;28;45478;-79
2023/02/06 03:19:51;;;;;;;;;10.50;2.00;;;;;4.81;100.00;103851.22;4974758;28;45508;-79
2023/02/06 03:22:16;;;;;;;;;7.50;2.00;;;;;4.80;100.00;103839.13;4974637;28;46191;-79
2023/02/06 03:24:42;;;;;;;;;5.50;2.00;;;;;4.79;100.00;103828.72;4975064;28;70049;-79
2023/02/06 03:27:12;;;;;;;;;8.25;2.00;;;;;4.81;100.00;103834.84;4975211;28;62208;-79
2023/02/06 03:29:38;;;;;;;;;9.75;3.75;;;;;4.81;100.00;103833.16;4974660;28;45419;-79
2023/02/06 03:32:05;;;;;;;;;2.00;2.00;;;;;4.81;100.00;103828.00;4974208;28;46291;-79
2023/02/06 03:34:36;;;;;;;;;4.75;4.00;;;;;4.80;100.00;103820.19;4974261;28;45403;-79
2023/02/06 03:37:02;;;;;;;;;12.25;4.25;;;;;4.76;100.00;103814.00;4976129;28;45463;-79
2023/02/06 03:39:27;;;;;;;;;7.25;2.00;;;;;4.74;100.00;103817.34;4974511;28;45471;-79
2023/02/06 03:41:55;;;;;;;;;4.75;1.00;;;;;4.73;100.00;103810.41;4975583;28;45367;-79
2023/02/06 03:44:24;;;;;;;;;7.75;2.00;;;;;4.74;100.00;103812.19;4974288;28;45264;-79
2023/02/06 03:46:50;;;;;;;;;1.50;1.00;;;;;4.72;100.00;103819.84;4974151;28;45335;-79
2023/02/06 03:49:17;;;;;;;;;9.50;2.00;;;;;4.70;100.00;103818.00;4975683;28;45404;-79
2023/02/06 03:51:50;;;;;;;;;5.75;2.00;;;;;4.67;100.00;103818.75;4973180;28;65361;-79
2023/02/06 03:54:18;;;;;;;;;5.75;4.00;;;;;4.67;100.00;103815.31;4974103;28;45536;-79
2023/02/06 03:56:52;;;;;;;;;6.00;1.00;;;;;4.65;100.00;103815.22;4975282;28;45264;-79
2023/02/06 03:59:17;;;;;;;;;4.25;2.00;;;;;4.64;100.00;103811.78;4975423;28;45732;-79
2023/02/06 04:01:45;;;;;;;;;1.75;1.75;;;;;4.63;100.00;103809.13;4973023;28;65754;-80
2023/02/06 04:04:14;;;;;;;;;8.00;2.00;;;;;4.61;100.00;103803.88;4974120;28;45441;-79
2023/02/06 04:06:40;;;;;;;;;5.50;3.50;;;;;4.63;100.00;103802.25;4975356;28;45490;-79
2023/02/06 04:09:05;;;;;;;;;5.50;4.00;;;;;4.64;100.00;103793.72;4975086;28;45303;-79
2023/02/06 04:11:31;;;;;;;;;4.00;1.00;;;;;4.64;100.00;103793.72;4973118;28;67034;-80
2023/02/06 04:13:56;;;;;;;;;4.25;1.25;;;;;4.61;100.00;103797.84;4974603;28;64171;-79
2023/02/06 04:16:21;;;;;;;;;5.00;4.00;;;;;4.59;100.00;103792.63;4974008;28;63363;-79
2023/02/06 04:18:47;;;;;;;;;8.50;2.00;;;;;4.59;100.00;103795.19;5064338;27;67754;-79
2023/02/06 04:21:12;;;;;;;;;7.50;2.00;;;;;4.56;100.00;103787.31;5077354;27;46166;-79
2023/02/06 04:23:37;;;;;;;;;7.75;2.00;;;;;4.56;100.00;103787.31;5077841;27;45498;-79
2023/02/06 04:26:03;;;;;;;;;5.00;2.00;;;;;4.52;100.00;103792.28;5077068;27;63010;-79
2023/02/06 04:28:28;;;;;;;;;2.50;1.50;;;;;4.53;100.00;103784.63;5077661;27;45394;-79
2023/02/06 04:30:53;;;;;;;;;7.00;2.00;;;;;4.51;100.00;103777.59;5077166;27;47647;-80
2023/02/06 04:33:19;;;;;;;;;2.50;2.00;;;;;4.52;100.00;103781.97;5076737;27;67173;-79
2023/02/06 04:35:46;;;;;;;;;4.75;1.75;;;;;4.51;100.00;103783.63;5077554;27;45308;-79
2023/02/06 04:38:11;;;;;;;;;3.75;1.00;;;;;4.51;100.00;103777.59;5059683;28;45386;-79
2023/02/06 04:40:36;;;;;;;;;4.00;1.75;;;;;4.45;100.00;103766.19;5076490;27;69782;-79
2023/02/06 04:43:02;;;;;;;;;5.25;1.25;;;;;4.46;100.00;103772.25;5076850;27;66689;-79
2023/02/06 04:45:27;;;;;;;;;7.25;3.00;;;;;4.44;100.00;103769.59;5076693;27;56970;-79
2023/02/06 04:47:52;;;;;;;;;10.50;1.50;;;;;4.41;100.00;103766.88;5076942;28;50477;-79
2023/02/06 04:50:18;;;;;;;;;2.00;2.00;;;;;4.40;100.00;103766.78;5077023;27;58016;-79
2023/02/06 04:52:44;;;;;;;;;4.25;4.00;;;;;4.39;100.00;103765.03;5077246;28;45284;-79
2023/02/06 04:55:09;;;;;;;;;4.50;2.00;;;;;4.39;100.00;103775.34;5077656;27;45307;-79
2023/02/06 04:57:35;;;;;;;;;4.25;3.00;;;;;4.37;100.00;103775.28;5077823;28;45570;-79
2023/02/06 05:00:00;;;;;;;;;4.75;3.00;;;;;4.37;100.00;103780.44;5075945;28;69824;-80
2023/02/06 05:02:25;;;;;;;;;3.00;1.75;;;;;4.37;100.00;103777.88;5076969;27;61353;-79
2023/02/06 05:04:51;;;;;;;;;9.50;3.50;;;;;4.37;100.00;103774.41;5077380;28;45328;-80
2023/02/06 05:07:16;;;;;;;;;4.25;2.50;;;;;4.35;100.00;103776.03;5077208;27;45382;-79
2023/02/06 05:09:41;;;;;;;;;4.00;2.00;;;;;4.34;100.00;103788.03;5058928;28;46878;-79
2023/02/06 05:12:07;;;;;;;;;7.75;3.50;;;;;4.32;100.00;103783.63;5076255;28;59377;-79
2023/02/06 05:14:32;;;;;;;;;4.25;2.00;;;;;4.31;100.00;103787.00;5076704;28;45414;-80
2023/02/06 05:16:57;;;;;;;;;5.25;2.25;;;;;4.28;100.00;103777.44;5076207;27;64990;-80
2023/02/06 05:19:23;;;;;;;;;1.50;1.50;;;;;4.31;100.00;103776.69;5057863;28;71165;-79
2023/02/06 05:21:48;;;;;;;;;3.25;1.00;;;;;4.31;100.00;103772.44;5077149;28;45475;-79
2023/02/06 05:24:14;;;;;;;;;7.75;4.25;;;;;4.31;100.00;103776.69;5076585;28;50292;-80
2023/02/06 05:26:39;;;;;;;;;6.50;3.00;;;;;4.31;100.00;103777.59;5076743;27;55493;-79
2023/02/06 05:29:04;;;;;;;;;4.50;2.00;;;;;4.31;100.00;103779.25;5075881;27;65333;-79
2023/02/06 05:31:29;;;;;;;;;5.75;2.00;;;;;4.31;100.00;103764.69;5075250;27;68108;-79
2023/02/06 05:33:55;;;;;;;;;3.25;2.00;;;;;4.32;100.00;103768.16;5077014;27;45380;-79
2023/02/06 05:36:21;;;;;;;;;6.25;0.75;;;;;4.32;100.00;103773.31;5077101;28;45289;-80
2023/02/06 05:38:47;;;;;;;;;5.00;2.00;;;;;4.33;100.00;103781.13;5076760;27;46048;-79
2023/02/06 05:41:13;;;;;;;;;2.75;1.50;;;;;4.32;100.00;103787.06;5076913;28;45717;-79
2023/02/06 05:43:38;;;;;;;;;9.00;3.00;;;;;4.31;100.00;103781.84;5076541;27;45396;-80
2023/02/06 05:46:04;;;;;;;;;8.00;1.50;;;;;4.32;100.00;103784.50;5076008;27;66746;-80
2023/02/06 05:48:29;;;;;;;;;7.25;1.75;;;;;4.33;100.00;103782.78;5076519;28;46472;-80
2023/02/06 05:50:56;;;;;;;;;7.00;4.00;;;;;4.34;100.00;103784.56;5076570;27;45273;-79
2023/02/06 05:53:22;;;;;;;;;7.25;1.75;;;;;4.34;100.00;103782.88;5076424;28;45397;-80
2023/02/06 05:55:47;;;;;;;;;5.00;2.00;;;;;4.33;100.00;103786.28;5076769;27;45536;-79
2023/02/06 05:58:13;;;;;;;;;2.50;2.50;;;;;4.31;100.00;103780.16;5057327;28;58751;-79
2023/02/06 06:00:38;;;;;;;;;8.50;2.00;;;;;4.29;100.00;103783.47;5057733;28;70011;-79
2023/02/06 06:03:04;;;;;;;;;6.50;3.00;;;;;4.28;100.00;103786.88;5076552;28;45361;-80
2023/02/06 06:05:29;;;;;;;;;2.50;2.00;;;;;4.28;100.00;103790.34;5076405;28;45316;-79
2023/02/06 06:07:54;;;;;;;;;5.00;4.25;;;;;4.24;100.00;103797.03;5076381;27;45256;-80
2023/02/06 06:10:20;;;;;;;;;6.50;2.00;;;;;4.24;100.00;103794.47;5075747;28;56080;-79
2023/02/06 06:12:45;;;;;;;;;4.75;2.00;;;;;4.26;100.00;103799.69;5075265;28;58991;-80
2023/02/06 06:15:11;;;;;;;;;5.50;4.50;;;;;4.29;100.00;103799.84;5075520;27;66587;-77
2023/02/06 06:17:36;;;;;;;;;13.75;4.00;;;;;4.29;100.00;103812.75;5074798;27;71877;-80
2023/02/06 06:20:01;;;;;;;;;11.00;4.00;;;;;4.28;100.00;103803.22;5075696;27;62714;-79
2023/02/06 06:22:27;;;;;;;;;4.00;2.00;;;;;4.29;100.00;103799.84;5076226;28;45292;-79
2023/02/06 06:24:52;;;;;;;;;11.25;6.50;;;;;4.29;100.00;103811.84;5076033;27;47086;-80
2023/02/06 06:27:17;;;;;;;;;7.00;2.50;;;;;4.28;100.00;103805.81;5075223;27;64126;-79
2023/02/06 06:29:43;;;;;;;;;3.50;1.25;;;;;4.26;100.00;103805.72;5075198;28;69276;-79
2023/02/06 06:32:08;;;;;;;;;10.75;2.50;;;;;4.23;100.00;103813.34;5075260;28;60078;-80
2023/02/06 06:34:33;;;;;;;;;14.00;4.00;;;;;4.25;100.00;103813.38;5075409;27;61557;-79
2023/02/06 06:36:58;;;;;;;;;2.00;2.00;;;;;4.24;100.00;103809.06;5075091;28;66014;-79
2023/02/06 06:39:24;;;;;;;;;2.50;2.25;;;;;4.28;100.00;103813.53;5075086;28;67462;-80
2023/02/06 06:41:49;;;;;;;;;1.00;1.00;;;;;4.28;100.00;103818.69;5075132;27;57162;-79
2023/02/06 06:44:14;;;;;;;;;6.00;3.00;;;;;4.28;100.00;103812.66;5078697;27;61769;-80
2023/02/06 06:46:40;;;;;;;;;11.50;4.25;;;;;4.26;100.00;103810.88;5078494;27;70855;-79
2023/02/06 06:49:05;;;;;;;;;3.50;2.00;;;;;4.25;100.00;103823.69;5078619;27;66658;-79
2023/02/06 06:51:31;;;;;;;;;6.00;2.25;;;;;4.24;100.00;103817.66;5078475;27;64609;-80
2023/02/06 06:53:56;;;;;;;;;6.00;4.75;;;;;4.25;100.00;103813.38;5079491;27;45582;-80
2023/02/06 06:56:21;;;;;;;;;3.00;3.00;;;;;4.25;100.00;103814.31;5078948;27;45423;-79
2023/02/06 06:58:47;;;;;;;;;4.75;2.00;;;;;4.26;100.00;103816.03;5079116;28;45390;-79
2023/02/06 07:01:13;;;;;;;;;10.50;1.50;;;;;4.24;100.00;103803.91;5079384;27;45445;-80
2023/02/06 07:03:42;;;;;;;;;10.00;4.75;;;;;4.22;100.00;103800.38;5061303;27;45508;-80
2023/02/06 07:06:09;;;;;;;;;1.25;1.00;;;;;4.21;100.00;103802.03;5079015;27;45491;-79
2023/02/06 07:08:40;;;;;;;;;7.00;2.25;;;;;4.17;100.00;103801.84;5061017;28;45356;-78
2023/02/06 07:11:09;;;;;;;;;6.50;3.50;;;;;4.13;100.00;103800.81;5077574;28;45401;-78
2023/02/06 07:13:34;;;;;;;;;3.25;1.50;;;;;4.11;100.00;103793.84;5079023;27;45339;-79
2023/02/06 07:15:59;;;;;;;;;6.50;3.00;;;;;4.10;100.00;103792.94;5078168;27;66179;-79
2023/02/06 07:18:25;;;;;;;;;9.25;2.25;;;;;4.09;100.00;103793.75;5077919;27;63931;-79
2023/02/06 07:20:50;;;;;;;;;15.75;5.00;;;;;4.06;100.00;103791.03;5077709;28;45494;-76
2023/02/06 07:23:16;;;;;;;;;11.00;4.00;;;;;4.03;100.00;103789.19;5078940;27;45333;-77
2023/02/06 07:25:41;;;;;;;;;5.50;1.75;;;;;4.01;100.00;103787.34;5076617;27;69069;-77
2023/02/06 07:28:07;;;;;;;;;7.50;2.50;;;;;4.00;100.00;103788.16;5077414;27;65535;-77
2023/02/06 07:30:32;;;;;;;;;7.25;3.75;;;;;4.01;100.00;103800.22;5078896;28;45367;-78
2023/02/06 07:32:57;;;;;;;;;5.00;3.50;;;;;3.99;100.00;103799.28;5078024;27;58934;-78
2023/02/06 07:35:23;;;;;;;;;7.25;2.75;;;;;3.96;100.00;103796.56;5077775;27;67125;-79
2023/02/06 07:37:52;;;;;;;;;4.00;3.75;;;;;3.97;100.00;103799.19;5078694;27;45431;-78
2023/02/06 07:40:17;;;;;;;;;10.00;4.00;;;;;3.98;100.00;103802.69;5078091;27;45539;-78
2023/02/06 07:42:42;;;;;;;;;5.25;2.25;;;;;3.99;100.00;103805.34;5078970;27;45254;-77
2023/02/06 07:45:08;;;;;;;;;7.50;3.25;;;;;4.00;100.00;103809.66;5078731;27;45417;-77
2023/02/06 07:47:34;;;;;;;;;5.25;4.50;;;;;4.01;100.00;103813.13;5078535;27;45415;-77
2023/02/06 07:49:59;;;;;;;;;11.00;4.00;;;;;4.01;100.00;103816.59;5077065;27;62422;-76
2023/02/06 07:52:25;;;;;;;;;4.25;2.25;;;;;4.00;100.00;103812.25;5076863;27;45340;-78
2023/02/06 07:54:50;;;;;;;;;8.50;4.00;;;;;4.02;100.00;103817.47;5076892;28;46749;-78
2023/02/06 07:57:15;;;;;;;;;5.50;2.25;;;;;4.02;100.00;103820.94;5077987;28;58900;-78
2023/02/06 07:59:41;;;;;;;;;5.50;3.50;;;;;4.03;100.00;103826.97;5078205;28;45407;-78
2023/02/06 08:02:09;;;;;;;;;8.25;4.25;;;;;4.04;100.00;103819.31;5077444;27;65261;-77
2023/02/06 08:04:34;;;;;;;;;6.75;2.75;;;;;4.08;100.00;103817.75;5060149;28;46431;-77
2023/02/06 08:07:01;;;;;;;;;8.25;4.75;;;;;4.11;100.00;103814.47;5077690;27;45396;-78
2023/02/06 08:09:27;;;;;;;;;12.75;4.00;;;;;4.13;100.00;103811.13;5060216;27;45550;-78
2023/02/06 08:11:52;;;;;;;;;6.50;4.00;;;;;4.17;100.00;103814.75;5059775;28;45505;-77
2023/02/06 08:14:17;;;;;;;;;5.00;4.00;;;;;4.20;100.00;103813.19;5077233;28;64021;-77
2023/02/06 08:16:43;;;;;;;;;3.50;2.75;;;;;4.23;100.00;103794.38;5076875;27;66612;-77
2023/02/06 08:19:09;;;;;;;;;10.75;6.75;;;;;4.25;100.00;103801.41;5078085;27;45400;-78
2023/02/06 08:21:35;;;;;;;;;8.25;4.00;;;;;4.30;100.00;103817.06;5077532;28;45313;-77
2023/02/06 08:24:01;;;;;;;;;5.25;4.00;;;;;4.32;100.00;103810.28;5059771;28;45406;-77
2023/02/06 08:26:28;;;;;;;;;9.00;6.50;;;;;4.35;100.00;103823.34;5077785;27;45770;-77
2023/02/06 08:28:54;;;;;;;;;4.50;2.50;;;;;4.37;100.00;103821.72;5078072;28;45462;-77
2023/02/06 08:31:19;;;;;;;;;4.75;2.50;;;;;4.38;100.00;103813.19;5077666;27;45400;-77
2023/02/06 08:33:45;;;;;;;;;3.50;2.25;;;;;4.41;100.00;103809.84;5077583;27;45392;-77
2023/02/06 08:36:11;;;;;;;;;15.75;7.00;;;;;4.43;100.00;103801.34;5077316;27;45490;-77
2023/02/06 08:38:36;;;;;;;;;4.25;4.00;;;;;4.47;100.00;103804.94;5059623;28;45404;-77
2023/02/06 08:41:03;;;;;;;;;4.25;2.00;;;;;4.51;100.00;103793.94;5077105;27;56832;-77
2023/02/06 08:43:28;;;;;;;;;7.75;6.50;;;;;4.57;100.00;103781.34;5077322;27;46827;-76
2023/02/06 08:45:58;;;;;;;;;6.50;4.00;;;;;4.62;100.00;103779.88;5076689;28;67816;-78
2023/02/06 08:48:24;;;;;;;;;8.00;5.00;;;;;4.67;100.00;103766.28;5060060;28;45328;-78
2023/02/06 08:50:50;;;;;;;;;8.75;4.75;;;;;4.74;100.00;103765.72;5077025;27;45316;-77
2023/02/06 08:53:15;;;;;;;;;11.00;5.50;;;;;4.79;100.00;103765.13;5077085;27;46484;-77
2023/02/06 08:55:40;;;;;;;;;10.50;7.50;;;;;4.83;100.00;103766.13;5075533;27;69298;-77
2023/02/06 08:58:06;;;;;;;;;8.50;7.00;;;;;4.88;100.00;103761.16;5076798;28;45391;-77
2023/02/06 09:00:31;;;;;;;;;7.50;6.50;;;;;4.89;100.00;103773.25;5072212;27;64486;-77
2023/02/06 09:02:56;;;;;;;;;7.00;4.00;;;;;4.89;100.00;103768.97;5093816;27;56812;-77
2023/02/06 09:05:22;;;;;;;;;11.25;4.00;;;;;4.89;100.00;103763.81;5096552;27;45325;-77
2023/02/06 09:07:47;;;;;;;;;5.50;4.00;;;;;4.92;100.00;103776.84;5089513;27;59050;-77
2023/02/06 09:10:13;;;;;;;;;11.25;8.00;;;;;4.97;100.00;103775.34;5076032;27;61351;-77
2023/02/06 09:12:38;;;;;;;;;6.00;3.50;;;;;5.00;100.00;103774.59;5076528;27;45513;-77
2023/02/06 09:15:04;;;;;;;;;5.50;2.50;;;;;5.02;100.00;103770.38;5076738;28;45293;-77
2023/02/06 09:17:30;;;;;;;;;10.25;4.75;;;;;5.03;100.00;103765.28;5076434;28;45280;-77
2023/02/06 09:19:57;;;;;;;;;9.00;5.00;;;;;5.07;100.00;103770.56;5076354;28;45527;-77
2023/02/06 09:22:22;;;;;;;;;7.00;4.50;;;;;5.10;100.00;103770.69;5076345;28;45572;-77
2023/02/06 09:24:47;;;;;;;;;7.50;4.00;;;;;5.15;100.00;103771.78;5075710;28;68090;-77
2023/02/06 09:27:14;;;;;;;;;10.00;7.25;;;;;5.19;100.00;103774.56;5075601;28;63872;-77
2023/02/06 09:29:39;;;;;;;;;6.50;4.75;;;;;5.28;100.00;103781.81;5076485;28;45446;-77
2023/02/06 09:32:05;;;;;;;;;4.75;3.50;;;;;5.39;100.00;103787.44;5076183;27;45447;-77
2023/02/06 09:34:30;;;;;;;;;4.50;4.00;;;;;5.49;100.00;103779.22;5042535;28;45463;-77
2023/02/06 09:36:56;;;;;;;;;7.75;5.00;;;;;5.61;100.00;103774.56;4973900;28;45415;-77
2023/02/06 09:39:22;;;;;;;;;10.00;5.00;;;;;5.76;100.00;103773.41;4973736;28;45451;-77
2023/02/06 09:41:57;;;;;;;;;10.50;3.00;;;;;5.92;100.00;103774.88;4973419;28;45401;-77
2023/02/06 09:44:32;;;;;;;;;11.75;4.75;;;;;6.08;100.00;103774.69;5041121;28;45467;-78
2023/02/06 09:47:21;;;;;;;;;15.50;7.50;;;;;6.25;100.00;103782.22;4973612;28;45468;-77
2023/02/06 09:49:50;;;;;;;;;9.50;6.50;;;;;6.38;100.00;103774.97;5040284;28;45465;-77
2023/02/06 09:52:21;;;;;;;;;12.25;3.00;;;;;6.43;100.00;103774.28;5040307;28;45348;-77
2023/02/06 09:54:47;;;;;;;;;11.00;7.00;;;;;6.47;100.00;103776.16;4973384;28;45873;-77
2023/02/06 09:57:44;;;;;;;;;7.00;4.00;;;;;6.48;100.00;103776.22;4973615;28;45589;-77
2023/02/06 10:00:47;;;;;;;;;7.00;4.25;;;;;6.51;100.00;103771.13;5040306;28;45493;-77
2023/02/06 10:03:18;;;;;;;;;13.50;5.50;;;;;6.65;100.00;103775.91;4972958;28;45436;-77
2023/02/06 10:06:15;;;;;;;;;14.75;8.00;;;;;6.87;100.00;103772.38;4973408;28;45861;-78
2023/02/06 10:08:46;;;;;;;;;7.00;7.00;;;;;7.08;100.00;103775.72;4973568;28;45348;-77
2023/02/06 10:11:18;;;;;;;;;9.75;5.50;;;;;7.16;100.00;103782.03;5023635;28;45517;-77
2023/02/06 10:13:55;;;;;;;;;10.25;7.75;;;;;7.24;100.00;103784.88;4973230;28;45439;-77
2023/02/06 10:16:42;;;;;;;;;17.00;6.75;;;;;7.32;100.00;103783.44;5040113;28;45342;-77
2023/02/06 10:19:18;;;;;;;;;5.25;4.00;;;;;7.34;100.00;103775.72;4952841;28;45336;-77
2023/02/06 10:21:55;;;;;;;;;5.25;5.00;;;;;7.43;100.00;103776.03;4953818;28;45730;-77
2023/02/06 10:24:42;;;;;;;;;14.75;8.50;;;;;7.59;100.00;103782.56;5020140;28;46530;-77
2023/02/06 10:27:12;;;;;;;;;8.50;5.00;;;;;7.61;100.00;103785.22;4953759;28;45493;-77
2023/02/06 10:29:39;;;;;;;;;9.50;7.50;;;;;7.62;100.00;103785.28;4953760;28;45384;-77
2023/02/06 10:32:16;;;;;;;;;11.50;9.25;;;;;7.65;100.00;103777.63;5019595;28;45309;-77
2023/02/06 10:35:19;;;;;;;;;9.75;8.25;;;;;7.73;100.00;103775.25;4953266;28;45471;-77
2023/02/06 10:38:33;;;;;;;;;9.50;5.25;;;;;7.72;100.00;103769.16;4953563;28;45863;-76
2023/02/06 10:41:16;;;;;;;;;19.25;8.00;;;;;7.72;100.00;103765.69;4973449;28;45613;-78
2023/02/06 10:43:53;;;;;;;;;18.75;10.00;;;;;7.68;100.00;103756.94;4973651;28;45491;-77
2023/02/06 10:46:36;;;;;;;;;11.00;5.50;;;;;7.66;100.00;103766.41;4956880;28;46266;-77
2023/02/06 10:49:17;;;;;;;;;7.25;4.50;;;;;7.70;100.00;103762.19;4973144;28;45314;-77
2023/02/06 10:51:47;;;;;;;;;6.75;5.25;;;;;7.80;100.00;103758.16;4973431;28;45450;-77
2023/02/06 10:54:29;;;;;;;;;11.00;6.50;;;;;7.95;100.00;103756.06;4973131;28;45575;-77
2023/02/06 10:56:56;;;;;;;;;8.50;7.00;;;;;8.16;100.00;103749.75;4973237;28;46236;-77
2023/02/06 10:59:31;;;;;;;;;8.50;5.75;;;;;8.43;100.00;103749.69;4974283;28;45945;-78
2023/02/06 11:02:08;;;;;;;;;8.50;6.00;;;;;8.58;100.00;103749.22;4975740;28;45665;-78
2023/02/06 11:04:37;;;;;;;;;11.00;6.00;;;;;8.52;100.00;103737.84;4975062;28;45588;-77
2023/02/06 11:07:07;;;;;;;;;6.50;5.50;;;;;8.52;100.00;103743.03;4973325;28;45530;-78
2023/02/06 11:09:33;;;;;;;;;6.75;4.50;;;;;8.41;100.00;103743.53;4973134;28;45320;-77
2023/02/06 11:11:59;;;;;;;;;7.00;5.25;;;;;8.30;100.00;103756.19;4972884;28;48822;-77
2023/02/06 11:14:29;;;;;;;;;5.00;5.00;;;;;8.26;100.00;103751.75;4972591;28;63026;-77
2023/02/06 11:16:57;;;;;;;;;8.00;4.50;;;;;8.36;100.00;103742.50;5001272;28;46607;-77
2023/02/06 11:19:26;;;;;;;;;5.75;4.25;;;;;8.57;100.00;103737.09;5036698;28;45392;-77
2023/02/06 11:21:56;;;;;;;;;16.00;7.75;;;;;8.80;100.00;103733.38;5053586;28;45403;-78
2023/02/06 11:24:23;;;;;;;;;9.25;6.50;;;;;9.09;100.00;103734.13;5038978;28;45472;-77
2023/02/06 11:26:58;;;;;;;;;13.00;5.00;;;;;9.46;100.00;103734.16;5054852;28;46236;-77
2023/02/06 11:29:36;;;;;;;;;14.25;6.00;;;;;10.18;100.00;103730.56;5037114;28;45861;-77
2023/02/06 11:32:04;;;;;;;;;6.00;4.50;;;;;11.96;100.00;103719.69;5039918;28;45431;-77